createdAt,value
2016-11-30T00:00:33.025Z,1019.55
2016-11-30T00:01:33.036Z,1019.55
2016-11-30T00:02:33.047Z,1019.55
2016-11-30T00:03:33.056Z,1019.54
2016-11-30T00:04:33.066Z,1019.51
2016-11-30T00:05:33.077Z,1019.52
2016-11-30T00:06:33.087Z,1019.52
2016-11-30T00:07:33.098Z,1019.58
2016-11-30T00:08:33.110Z,1019.51
2016-11-30T00:09:33.121Z,1019.54
2016-11-30T00:10:33.131Z,1019.55
2016-11-30T00:11:33.141Z,1019.49
2016-11-30T00:12:33.152Z,1019.48
2016-11-30T00:13:33.172Z,1019.52
2016-11-30T00:14:33.172Z,1019.52
2016-11-30T00:15:33.192Z,1019.53
2016-11-30T00:16:33.193Z,1019.51
2016-11-30T00:17:33.202Z,1019.49
2016-11-30T00:18:33.214Z,1019.5
2016-11-30T00:19:33.223Z,1019.48
2016-11-30T00:20:33.234Z,1019.48
2016-11-30T00:21:33.243Z,1019.5
2016-11-30T00:22:33.254Z,1019.52
2016-11-30T00:23:33.269Z,1019.49
2016-11-30T00:24:33.276Z,1019.46
2016-11-30T00:25:33.283Z,1019.47
2016-11-30T00:26:33.294Z,1019.4
2016-11-30T00:27:33.315Z,1019.46
2016-11-30T00:28:33.315Z,1019.48
2016-11-30T00:29:33.325Z,1019.56
2016-11-30T00:30:33.335Z,1019.57
2016-11-30T00:31:33.346Z,1019.53
2016-11-30T00:32:33.356Z,1019.52
2016-11-30T00:33:33.365Z,1019.5
2016-11-30T00:34:33.377Z,1019.49
2016-11-30T00:35:33.385Z,1019.5
2016-11-30T00:36:33.396Z,1019.53
2016-11-30T00:37:33.407Z,1019.53
2016-11-30T00:38:33.417Z,1019.56
2016-11-30T00:39:33.427Z,1019.55
2016-11-30T00:40:33.441Z,1019.53
2016-11-30T00:41:33.451Z,1019.48
2016-11-30T00:42:33.465Z,1019.39
2016-11-30T00:43:33.468Z,1019.29
2016-11-30T00:44:33.479Z,1019.27
2016-11-30T00:45:33.489Z,1019.22
2016-11-30T00:46:33.499Z,1019.21
2016-11-30T00:47:33.521Z,1019.2
2016-11-30T00:48:33.518Z,1019.19
2016-11-30T00:49:33.530Z,1019.17
2016-11-30T00:50:33.541Z,1019.18
2016-11-30T00:51:33.549Z,1019.21
2016-11-30T00:52:33.559Z,1019.22
2016-11-30T00:53:33.575Z,1019.22
2016-11-30T00:54:33.588Z,1019.23
2016-11-30T00:55:33.590Z,1019.22
2016-11-30T00:56:33.599Z,1019.2
2016-11-30T00:57:33.609Z,1019.13
2016-11-30T00:58:33.620Z,1019.1
2016-11-30T00:59:33.631Z,1019.09
2016-11-30T01:00:33.639Z,1019.09
2016-11-30T01:01:33.756Z,1019.11
2016-11-30T01:02:33.661Z,1019.22
2016-11-30T01:03:33.669Z,1019.26
2016-11-30T01:04:33.681Z,1019.26
2016-11-30T01:05:33.690Z,1019.22
2016-11-30T01:06:33.702Z,1019.21
2016-11-30T01:07:33.712Z,1019.23
2016-11-30T01:08:33.726Z,1019.24
2016-11-30T01:09:33.732Z,1019.2
2016-11-30T01:10:33.745Z,1019.18
2016-11-30T01:11:33.752Z,1019.17
2016-11-30T01:12:33.762Z,1019.19
2016-11-30T01:13:33.779Z,1019.18
2016-11-30T01:14:33.782Z,1019.18
2016-11-30T01:15:33.792Z,1019.19
2016-11-30T01:16:33.801Z,1019.23
2016-11-30T01:17:33.812Z,1019.25
2016-11-30T01:18:33.821Z,1019.24
2016-11-30T01:19:33.833Z,1019.31
2016-11-30T01:20:33.847Z,1019.38
2016-11-30T01:21:33.853Z,1019.36
2016-11-30T01:22:33.863Z,1019.39
2016-11-30T01:23:33.873Z,1019.38
2016-11-30T01:24:33.888Z,1019.35
2016-11-30T01:25:33.894Z,1019.37
2016-11-30T01:26:33.903Z,1019.33
2016-11-30T01:27:33.913Z,1019.28
2016-11-30T01:28:33.924Z,1019.18
2016-11-30T01:29:34.049Z,1019.16
2016-11-30T01:30:33.941Z,1019.15
2016-11-30T01:31:33.952Z,1019.13
2016-11-30T01:32:33.963Z,1019.19
2016-11-30T01:33:33.976Z,1019.19
2016-11-30T01:34:33.984Z,1019.21
2016-11-30T01:35:33.992Z,1019.23
2016-11-30T01:36:34.003Z,1019.28
2016-11-30T01:37:34.013Z,1019.27
2016-11-30T01:38:34.023Z,1019.25
2016-11-30T01:39:34.033Z,1019.23
2016-11-30T01:40:34.043Z,1019.2
2016-11-30T01:41:34.053Z,1019.22
2016-11-30T01:42:34.069Z,1019.22
2016-11-30T01:43:34.073Z,1019.25
2016-11-30T01:44:34.084Z,1019.23
2016-11-30T01:45:34.099Z,1019.25
2016-11-30T01:46:34.103Z,1019.21
2016-11-30T01:47:34.114Z,1019.21
2016-11-30T01:48:34.123Z,1019.22
2016-11-30T01:49:34.134Z,1019.2
2016-11-30T01:50:34.144Z,1019.17
2016-11-30T01:51:34.154Z,1019.17
2016-11-30T01:52:34.163Z,1019.18
2016-11-30T01:53:34.191Z,1019.15
2016-11-30T01:54:34.250Z,1019.21
2016-11-30T01:55:34.285Z,1019.23
2016-11-30T01:56:34.205Z,1019.25
2016-11-30T01:57:34.215Z,1019.25
2016-11-30T01:58:34.223Z,1019.27
2016-11-30T01:59:34.233Z,1019.24
2016-11-30T02:00:34.244Z,1019.21
2016-11-30T02:01:34.254Z,1019.19
2016-11-30T02:02:34.263Z,1019.16
2016-11-30T02:03:34.273Z,1019.14
2016-11-30T02:04:34.285Z,1019.09
2016-11-30T02:05:34.298Z,1019.1
2016-11-30T02:06:34.304Z,1019.12
2016-11-30T02:07:34.317Z,1019.14
2016-11-30T02:08:34.324Z,1019.13
2016-11-30T02:09:34.334Z,1019.1
2016-11-30T02:10:34.348Z,1019.03
2016-11-30T02:11:34.354Z,1018.98
2016-11-30T02:12:34.364Z,1019
2016-11-30T02:13:34.375Z,1019.01
2016-11-30T02:14:34.384Z,1019.08
2016-11-30T02:15:34.394Z,1019.09
2016-11-30T02:16:34.405Z,1019.05
2016-11-30T02:17:34.414Z,1019.04
2016-11-30T02:18:34.423Z,1019.05
2016-11-30T02:19:34.434Z,1019.01
2016-11-30T02:20:34.445Z,1019.02
2016-11-30T02:21:34.454Z,1019.06
2016-11-30T02:22:34.472Z,1019.08
2016-11-30T02:23:34.474Z,1019.06
2016-11-30T02:24:34.485Z,1019.05
2016-11-30T02:25:34.496Z,1019.08
2016-11-30T02:26:34.504Z,1019.08
2016-11-30T02:27:34.514Z,1019.08
2016-11-30T02:28:34.525Z,1019.09
2016-11-30T02:29:34.534Z,1019.08
2016-11-30T02:30:34.559Z,1019.11
2016-11-30T02:31:34.556Z,1019.08
2016-11-30T02:32:34.563Z,1019.12
2016-11-30T02:33:34.573Z,1019.1
2016-11-30T02:34:34.584Z,1019.11
2016-11-30T02:35:34.597Z,1019.09
2016-11-30T02:36:34.603Z,1019.1
2016-11-30T02:37:34.614Z,1019.02
2016-11-30T02:38:34.622Z,1019
2016-11-30T02:39:34.634Z,1018.99
2016-11-30T02:40:34.646Z,1018.97
2016-11-30T02:41:34.654Z,1018.93
2016-11-30T02:42:34.668Z,1018.9
2016-11-30T02:43:34.675Z,1018.84
2016-11-30T02:44:34.685Z,1018.81
2016-11-30T02:45:34.722Z,1018.73
2016-11-30T02:46:34.704Z,1018.66
2016-11-30T02:47:34.714Z,1018.52
2016-11-30T02:48:34.724Z,1018.47
2016-11-30T02:49:34.735Z,1018.46
2016-11-30T02:50:34.743Z,1018.47
2016-11-30T02:51:34.753Z,1018.53
2016-11-30T02:52:34.763Z,1018.61
2016-11-30T02:53:34.797Z,1018.62
2016-11-30T02:54:34.783Z,1018.62
2016-11-30T02:55:34.794Z,1018.63
2016-11-30T02:56:34.868Z,1018.6
2016-11-30T02:57:34.817Z,1018.59
2016-11-30T02:58:34.823Z,1018.61
2016-11-30T02:59:34.833Z,1018.59
2016-11-30T03:00:34.843Z,1018.58
2016-11-30T03:01:34.852Z,1018.62
2016-11-30T03:02:34.865Z,1018.56
2016-11-30T03:03:34.873Z,1018.62
2016-11-30T03:04:34.883Z,1018.54
2016-11-30T03:05:34.894Z,1018.55
2016-11-30T03:06:34.904Z,1018.51
2016-11-30T03:07:34.915Z,1018.48
2016-11-30T03:08:34.922Z,1018.47
2016-11-30T03:09:34.933Z,1018.45
2016-11-30T03:10:34.945Z,1018.48
2016-11-30T03:11:34.957Z,1018.47
2016-11-30T03:12:34.961Z,1018.47
2016-11-30T03:13:34.973Z,1018.52
2016-11-30T03:14:34.980Z,1018.52
2016-11-30T03:15:34.991Z,1018.51
2016-11-30T03:16:35.002Z,1018.51
2016-11-30T03:17:35.012Z,1018.53
2016-11-30T03:18:35.021Z,1018.57
2016-11-30T03:19:35.032Z,1018.6
2016-11-30T03:20:35.042Z,1018.65
2016-11-30T03:21:35.052Z,1018.61
2016-11-30T03:22:35.061Z,1018.63
2016-11-30T03:23:35.070Z,1018.65
2016-11-30T03:24:35.080Z,1018.69
2016-11-30T03:25:35.093Z,1018.7
2016-11-30T03:26:35.108Z,1018.71
2016-11-30T03:27:35.112Z,1018.71
2016-11-30T03:28:35.119Z,1018.71
2016-11-30T03:29:35.135Z,1018.69
2016-11-30T03:30:35.144Z,1018.66
2016-11-30T03:31:35.150Z,1018.64
2016-11-30T03:32:35.161Z,1018.64
2016-11-30T03:33:35.178Z,1018.64
2016-11-30T03:34:35.177Z,1018.66
2016-11-30T03:35:35.189Z,1018.7
2016-11-30T03:36:35.198Z,1018.68
2016-11-30T03:37:35.208Z,1018.67
2016-11-30T03:38:35.217Z,1018.64
2016-11-30T03:39:35.231Z,1018.67
2016-11-30T03:40:35.243Z,1018.67
2016-11-30T03:41:35.251Z,1018.6
2016-11-30T03:42:35.258Z,1018.64
2016-11-30T03:43:35.268Z,1018.59
2016-11-30T03:44:35.280Z,1018.55
2016-11-30T03:45:35.289Z,1018.55
2016-11-30T03:46:35.296Z,1018.5
2016-11-30T03:47:35.308Z,1018.45
2016-11-30T03:48:35.317Z,1018.44
2016-11-30T03:49:35.329Z,1018.38
2016-11-30T03:50:35.336Z,1018.37
2016-11-30T03:51:35.347Z,1018.38
2016-11-30T03:52:35.359Z,1018.35
2016-11-30T03:53:35.366Z,1018.33
2016-11-30T03:54:35.375Z,1018.3
2016-11-30T03:55:35.389Z,1018.31
2016-11-30T03:56:35.395Z,1018.28
2016-11-30T03:57:35.405Z,1018.32
2016-11-30T03:58:35.415Z,1018.31
2016-11-30T03:59:35.430Z,1018.32
2016-11-30T04:00:35.435Z,1018.36
2016-11-30T04:01:35.445Z,1018.34
2016-11-30T04:02:35.457Z,1018.29
2016-11-30T04:03:35.465Z,1018.27
2016-11-30T04:04:35.474Z,1018.21
2016-11-30T04:05:35.484Z,1018.16
2016-11-30T04:06:35.498Z,1018.16
2016-11-30T04:07:35.503Z,1018.06
2016-11-30T04:08:35.515Z,1018.06
2016-11-30T04:09:35.522Z,1018.02
2016-11-30T04:10:35.534Z,1017.99
2016-11-30T04:11:35.541Z,1017.99
2016-11-30T04:12:35.553Z,1018
2016-11-30T04:13:35.562Z,1017.96
2016-11-30T04:14:35.573Z,1017.94
2016-11-30T04:15:35.586Z,1017.92
2016-11-30T04:16:35.594Z,1017.9
2016-11-30T04:17:35.603Z,1017.96
2016-11-30T04:18:35.613Z,1017.99
2016-11-30T04:19:35.624Z,1018.03
2016-11-30T04:20:35.632Z,1018.1
2016-11-30T04:21:35.642Z,1018.09
2016-11-30T04:22:35.651Z,1018.09
2016-11-30T04:23:35.662Z,1018.12
2016-11-30T04:24:35.673Z,1018.18
2016-11-30T04:25:35.680Z,1018.15
2016-11-30T04:26:35.690Z,1018.19
2016-11-30T04:27:35.701Z,1018.24
2016-11-30T04:28:35.710Z,1018.22
2016-11-30T04:29:35.719Z,1018.21
2016-11-30T04:30:35.731Z,1018.22
2016-11-30T04:31:35.738Z,1018.19
2016-11-30T04:32:35.749Z,1018.12
2016-11-30T04:33:35.757Z,1018.16
2016-11-30T04:34:35.767Z,1018.09
2016-11-30T04:35:35.780Z,1018.12
2016-11-30T04:36:35.787Z,1018.15
2016-11-30T04:37:35.798Z,1018.19
2016-11-30T04:38:35.921Z,1018.2
2016-11-30T04:39:35.820Z,1018.21
2016-11-30T04:40:35.828Z,1018.16
2016-11-30T04:41:35.839Z,1018.12
2016-11-30T04:42:35.964Z,1018.09
2016-11-30T04:43:35.858Z,1018.06
2016-11-30T04:44:35.866Z,1018.05
2016-11-30T04:45:35.875Z,1018.05
2016-11-30T04:46:35.885Z,1018.03
2016-11-30T04:47:35.895Z,1018.05
2016-11-30T04:48:35.905Z,1018.02
2016-11-30T04:49:35.914Z,1018.02
2016-11-30T04:50:35.926Z,1018.01
2016-11-30T04:51:35.938Z,1018.02
2016-11-30T04:52:35.944Z,1018.05
2016-11-30T04:53:35.956Z,1018.02
2016-11-30T04:54:35.964Z,1018.03
2016-11-30T04:55:35.975Z,1018.04
2016-11-30T04:56:35.984Z,1018.02
2016-11-30T04:57:35.993Z,1018.07
2016-11-30T04:58:36.004Z,1018.06
2016-11-30T04:59:36.011Z,1018.02
2016-11-30T05:00:36.023Z,1017.96
2016-11-30T05:01:36.032Z,1018.03
2016-11-30T05:02:36.041Z,1017.99
2016-11-30T05:03:36.053Z,1018.05
2016-11-30T05:04:36.060Z,1018.06
2016-11-30T05:05:36.074Z,1017.97
2016-11-30T05:06:36.082Z,1017.95
2016-11-30T05:07:36.089Z,1017.88
2016-11-30T05:08:36.099Z,1017.83
2016-11-30T05:09:36.109Z,1017.86
2016-11-30T05:10:36.118Z,1017.82
2016-11-30T05:11:36.128Z,1017.74
2016-11-30T05:12:36.139Z,1017.72
2016-11-30T05:13:36.147Z,1017.72
2016-11-30T05:14:36.161Z,1017.58
2016-11-30T05:15:36.171Z,1017.63
2016-11-30T05:16:36.177Z,1017.6
2016-11-30T05:17:36.189Z,1017.5
2016-11-30T05:18:36.197Z,1017.53
2016-11-30T05:19:36.217Z,1017.47
2016-11-30T05:20:36.217Z,1017.51
2016-11-30T05:21:36.231Z,1017.5
2016-11-30T05:22:36.236Z,1017.54
2016-11-30T05:23:36.244Z,1017.5
2016-11-30T05:24:36.254Z,1017.52
2016-11-30T05:25:36.264Z,1017.55
2016-11-30T05:26:36.274Z,1017.6
2016-11-30T05:27:36.283Z,1017.6
2016-11-30T05:28:36.293Z,1017.54
2016-11-30T05:29:36.307Z,1017.55
2016-11-30T05:30:36.314Z,1017.51
2016-11-30T05:31:36.322Z,1017.49
2016-11-30T05:32:36.342Z,1017.52
2016-11-30T05:33:36.344Z,1017.51
2016-11-30T05:34:36.352Z,1017.53
2016-11-30T05:35:36.361Z,1017.58
2016-11-30T05:36:36.372Z,1017.6
2016-11-30T05:37:36.380Z,1017.59
2016-11-30T05:38:36.393Z,1017.59
2016-11-30T05:39:36.402Z,1017.53
2016-11-30T05:40:36.412Z,1017.47
2016-11-30T05:41:36.424Z,1017.5
2016-11-30T05:42:36.428Z,1017.56
2016-11-30T05:43:36.438Z,1017.55
2016-11-30T05:44:36.447Z,1017.56
2016-11-30T05:45:36.461Z,1017.52
2016-11-30T05:46:36.470Z,1017.5
2016-11-30T05:47:36.481Z,1017.48
2016-11-30T05:48:36.487Z,1017.49
2016-11-30T05:49:36.497Z,1017.44
2016-11-30T05:50:36.508Z,1017.43
2016-11-30T05:51:36.517Z,1017.47
2016-11-30T05:52:36.529Z,1017.5
2016-11-30T05:53:36.536Z,1017.44
2016-11-30T05:54:36.545Z,1017.46
2016-11-30T05:55:36.556Z,1017.44
2016-11-30T05:56:36.567Z,1017.44
2016-11-30T05:57:36.577Z,1017.47
2016-11-30T05:58:36.635Z,1017.5
2016-11-30T05:59:36.594Z,1017.57
2016-11-30T06:00:36.604Z,1017.58
2016-11-30T06:01:36.614Z,1017.61
2016-11-30T06:02:36.624Z,1017.62
2016-11-30T06:03:36.633Z,1017.66
2016-11-30T06:04:36.644Z,1017.64
2016-11-30T06:05:36.654Z,1017.63
2016-11-30T06:06:36.664Z,1017.54
2016-11-30T06:07:36.674Z,1017.52
2016-11-30T06:08:36.683Z,1017.47
2016-11-30T06:09:36.692Z,1017.45
2016-11-30T06:10:36.702Z,1017.4
2016-11-30T06:11:36.713Z,1017.38
2016-11-30T06:12:36.720Z,1017.34
2016-11-30T06:13:36.780Z,1017.35
2016-11-30T06:14:36.740Z,1017.35
2016-11-30T06:15:36.753Z,1017.37
2016-11-30T06:16:36.764Z,1017.42
2016-11-30T06:17:36.768Z,1017.37
2016-11-30T06:18:36.829Z,1017.42
2016-11-30T06:19:36.788Z,1017.4
2016-11-30T06:20:36.800Z,1017.48
2016-11-30T06:21:36.809Z,1017.47
2016-11-30T06:22:36.818Z,1017.5
2016-11-30T06:23:36.835Z,1017.52
2016-11-30T06:24:36.836Z,1017.54
2016-11-30T06:25:36.846Z,1017.59
2016-11-30T06:26:36.859Z,1017.59
2016-11-30T06:27:36.865Z,1017.61
2016-11-30T06:28:36.925Z,1017.63
2016-11-30T06:29:36.886Z,1017.59
2016-11-30T06:30:36.902Z,1017.66
2016-11-30T06:31:36.904Z,1017.64
2016-11-30T06:32:36.914Z,1017.66
2016-11-30T06:33:36.923Z,1017.64
2016-11-30T06:34:36.935Z,1017.65
2016-11-30T06:35:36.948Z,1017.64
2016-11-30T06:36:36.954Z,1017.62
2016-11-30T06:37:36.968Z,1017.62
2016-11-30T06:38:37.177Z,1017.58
2016-11-30T06:39:36.989Z,1017.58
2016-11-30T06:40:36.995Z,1017.54
2016-11-30T06:41:37.003Z,1017.54
2016-11-30T06:42:37.109Z,1017.54
2016-11-30T06:43:37.117Z,1017.56
2016-11-30T06:44:37.125Z,1017.52
2016-11-30T06:45:37.133Z,1017.48
2016-11-30T06:46:37.067Z,1017.49
2016-11-30T06:47:37.075Z,1017.52
2016-11-30T06:48:37.084Z,1017.48
2016-11-30T06:49:37.082Z,1017.55
2016-11-30T06:50:37.090Z,1017.5
2016-11-30T06:51:37.106Z,1017.53
2016-11-30T06:52:37.108Z,1017.5
2016-11-30T06:53:37.121Z,1017.5
2016-11-30T06:54:37.129Z,1017.52
2016-11-30T06:55:37.139Z,1017.5
2016-11-30T06:56:37.147Z,1017.47
2016-11-30T06:57:37.158Z,1017.52
2016-11-30T06:58:37.179Z,1017.47
2016-11-30T06:59:37.176Z,1017.49
2016-11-30T07:00:37.186Z,1017.53
2016-11-30T07:01:37.196Z,1017.49
2016-11-30T07:02:37.207Z,1017.51
2016-11-30T07:03:37.215Z,1017.5
2016-11-30T07:04:37.225Z,1017.44
2016-11-30T07:05:37.235Z,1017.45
2016-11-30T07:06:37.244Z,1017.37
2016-11-30T07:07:37.254Z,1017.42
2016-11-30T07:08:37.267Z,1017.4
2016-11-30T07:09:37.275Z,1017.41
2016-11-30T07:10:37.284Z,1017.38
2016-11-30T07:11:37.294Z,1017.32
2016-11-30T07:12:37.303Z,1017.35
2016-11-30T07:13:37.314Z,1017.27
2016-11-30T07:14:37.325Z,1017.3
2016-11-30T07:15:37.335Z,1017.27
2016-11-30T07:16:37.349Z,1017.27
2016-11-30T07:17:37.351Z,1017.24
2016-11-30T07:18:37.362Z,1017.24
2016-11-30T07:19:37.371Z,1017.19
2016-11-30T07:20:37.384Z,1017.19
2016-11-30T07:21:37.391Z,1017.2
2016-11-30T07:22:37.403Z,1017.2
2016-11-30T07:23:37.410Z,1017.18
2016-11-30T07:24:37.422Z,1017.13
2016-11-30T07:25:37.431Z,1017.16
2016-11-30T07:26:37.442Z,1017.14
2016-11-30T07:27:37.451Z,1017.11
2016-11-30T07:28:37.461Z,1017.13
2016-11-30T07:29:37.471Z,1017.13
2016-11-30T07:30:37.480Z,1017.19
2016-11-30T07:31:37.492Z,1017.11
2016-11-30T07:32:37.500Z,1017.21
2016-11-30T07:33:37.512Z,1017.16
2016-11-30T07:34:37.522Z,1017.2
2016-11-30T07:35:37.533Z,1017.24
2016-11-30T07:36:37.540Z,1017.32
2016-11-30T07:37:37.549Z,1017.25
2016-11-30T07:38:37.559Z,1017.21
2016-11-30T07:39:37.569Z,1017.17
2016-11-30T07:40:37.579Z,1017.14
2016-11-30T07:41:37.589Z,1017.13
2016-11-30T07:42:37.600Z,1017.15
2016-11-30T07:43:37.621Z,1017.1
2016-11-30T07:44:37.619Z,1017.11
2016-11-30T07:45:37.629Z,1017.06
2016-11-30T07:46:37.639Z,1017.09
2016-11-30T07:47:37.647Z,1017.07
2016-11-30T07:48:37.657Z,1017.05
2016-11-30T07:49:37.669Z,1017.06
2016-11-30T07:50:37.676Z,1017.08
2016-11-30T07:51:37.688Z,1017.05
2016-11-30T07:52:37.697Z,1017.13
2016-11-30T07:53:37.707Z,1017.03
2016-11-30T07:54:37.716Z,1017.02
2016-11-30T07:55:37.728Z,1017
2016-11-30T07:56:37.739Z,1016.99
2016-11-30T07:57:37.746Z,1016.96
2016-11-30T07:58:37.756Z,1016.96
2016-11-30T07:59:37.768Z,1016.92
2016-11-30T08:00:37.780Z,1016.94
2016-11-30T08:01:37.785Z,1016.95
2016-11-30T08:02:37.796Z,1016.95
2016-11-30T08:03:37.806Z,1016.95
2016-11-30T08:04:37.818Z,1016.93
2016-11-30T08:05:37.825Z,1016.97
2016-11-30T08:06:37.837Z,1016.93
2016-11-30T08:07:37.847Z,1016.97
2016-11-30T08:08:37.856Z,1016.95
2016-11-30T08:09:37.866Z,1017.01
2016-11-30T08:10:37.876Z,1017.01
2016-11-30T08:11:37.887Z,1016.97
2016-11-30T08:12:37.895Z,1017.01
2016-11-30T08:13:37.906Z,1016.99
2016-11-30T08:14:37.916Z,1016.98
2016-11-30T08:15:37.926Z,1016.96
2016-11-30T08:16:37.936Z,1016.98
2016-11-30T08:17:37.947Z,1016.97
2016-11-30T08:18:37.956Z,1017.01
2016-11-30T08:19:37.967Z,1016.96
2016-11-30T08:20:37.975Z,1017
2016-11-30T08:21:37.986Z,1016.99
2016-11-30T08:22:37.996Z,1017.02
2016-11-30T08:23:38.010Z,1017.07
2016-11-30T08:24:38.016Z,1017.07
2016-11-30T08:25:38.034Z,1017.07
2016-11-30T08:26:38.037Z,1017.08
2016-11-30T08:27:38.045Z,1017.1
2016-11-30T08:28:38.056Z,1017.09
2016-11-30T08:29:38.077Z,1017.02
2016-11-30T08:30:38.077Z,1016.98
2016-11-30T08:31:38.088Z,1016.96
2016-11-30T08:32:38.097Z,1016.95
2016-11-30T08:33:38.108Z,1016.9
2016-11-30T08:34:38.117Z,1016.87
2016-11-30T08:35:38.128Z,1016.9
2016-11-30T08:36:38.137Z,1016.88
2016-11-30T08:37:38.149Z,1016.9
2016-11-30T08:38:38.157Z,1016.89
2016-11-30T08:39:38.167Z,1016.83
2016-11-30T08:40:38.181Z,1016.9
2016-11-30T08:41:38.190Z,1016.85
2016-11-30T08:42:38.198Z,1016.9
2016-11-30T08:43:38.208Z,1016.85
2016-11-30T08:44:38.229Z,1016.83
2016-11-30T08:45:38.230Z,1016.77
2016-11-30T08:46:38.240Z,1016.81
2016-11-30T08:47:38.249Z,1016.86
2016-11-30T08:48:38.261Z,1016.88
2016-11-30T08:49:38.269Z,1016.89
2016-11-30T08:50:38.281Z,1016.86
2016-11-30T08:51:38.291Z,1016.89
2016-11-30T08:52:38.302Z,1016.87
2016-11-30T08:53:38.312Z,1016.83
2016-11-30T08:54:38.321Z,1016.88
2016-11-30T08:55:38.331Z,1016.92
2016-11-30T08:56:38.352Z,1016.93
2016-11-30T08:57:38.352Z,1016.98
2016-11-30T08:58:38.362Z,1016.93
2016-11-30T08:59:38.373Z,1016.92
2016-11-30T09:00:38.384Z,1016.99
2016-11-30T09:01:38.396Z,1016.98
2016-11-30T09:02:38.404Z,1016.97
2016-11-30T09:03:38.414Z,1016.94
2016-11-30T09:04:38.425Z,1016.92
2016-11-30T09:05:38.434Z,1016.86
2016-11-30T09:06:38.446Z,1016.89
2016-11-30T09:07:38.456Z,1016.92
2016-11-30T09:08:38.464Z,1016.9
2016-11-30T09:09:38.477Z,1016.9
2016-11-30T09:10:38.485Z,1016.92
2016-11-30T09:11:38.497Z,1016.9
2016-11-30T09:12:38.508Z,1016.88
2016-11-30T09:13:38.517Z,1016.86
2016-11-30T09:14:38.528Z,1016.83
2016-11-30T09:15:38.538Z,1016.8
2016-11-30T09:16:38.548Z,1016.86
2016-11-30T09:17:38.560Z,1016.88
2016-11-30T09:18:38.568Z,1016.91
2016-11-30T09:19:38.579Z,1017
2016-11-30T09:20:38.589Z,1016.98
2016-11-30T09:21:38.600Z,1016.99
2016-11-30T09:22:38.613Z,1017.03
2016-11-30T09:23:38.619Z,1017.03
2016-11-30T09:24:38.631Z,1016.98
2016-11-30T09:25:38.643Z,1017.02
2016-11-30T09:26:38.654Z,1017.1
2016-11-30T09:27:38.662Z,1017.02
2016-11-30T09:28:38.673Z,1017.03
2016-11-30T09:29:38.684Z,1017.07
2016-11-30T09:30:38.693Z,1017.08
2016-11-30T09:31:38.703Z,1017.11
2016-11-30T09:32:38.715Z,1017.11
2016-11-30T09:33:38.723Z,1017.02
2016-11-30T09:34:38.736Z,1016.99
2016-11-30T09:35:38.747Z,1016.98
2016-11-30T09:36:38.756Z,1016.95
2016-11-30T09:37:38.765Z,1016.95
2016-11-30T09:38:38.781Z,1016.95
2016-11-30T09:39:38.789Z,1016.95
2016-11-30T09:40:38.797Z,1016.93
2016-11-30T09:41:38.810Z,1016.93
2016-11-30T09:42:38.818Z,1016.96
2016-11-30T09:43:38.829Z,1016.91
2016-11-30T09:44:38.839Z,1016.93
2016-11-30T09:45:38.850Z,1016.93
2016-11-30T09:46:38.860Z,1016.89
2016-11-30T09:47:38.870Z,1016.94
2016-11-30T09:48:38.883Z,1016.91
2016-11-30T09:49:38.892Z,1016.89
2016-11-30T09:50:38.903Z,1016.83
2016-11-30T09:51:38.914Z,1016.88
2016-11-30T09:52:38.926Z,1016.81
2016-11-30T09:53:38.935Z,1016.82
2016-11-30T09:54:38.947Z,1016.85
2016-11-30T09:55:38.960Z,1016.83
2016-11-30T09:56:38.966Z,1016.83
2016-11-30T09:57:38.977Z,1016.74
2016-11-30T09:58:38.986Z,1016.73
2016-11-30T09:59:38.997Z,1016.69
2016-11-30T10:00:39.014Z,1016.76
2016-11-30T10:01:39.022Z,1016.69
2016-11-30T10:02:39.029Z,1016.67
2016-11-30T10:03:39.044Z,1016.64
2016-11-30T10:04:39.051Z,1016.66
2016-11-30T10:05:39.059Z,1016.66
2016-11-30T10:06:39.070Z,1016.62
2016-11-30T10:07:39.084Z,1016.64
2016-11-30T10:08:39.094Z,1016.66
2016-11-30T10:09:39.104Z,1016.64
2016-11-30T10:10:39.113Z,1016.68
2016-11-30T10:11:39.128Z,1016.64
2016-11-30T10:12:39.136Z,1016.63
2016-11-30T10:13:39.147Z,1016.62
2016-11-30T10:14:39.156Z,1016.61
2016-11-30T10:15:39.167Z,1016.61
2016-11-30T10:16:39.177Z,1016.62
2016-11-30T10:17:39.189Z,1016.61
2016-11-30T10:18:39.198Z,1016.6
2016-11-30T10:19:39.210Z,1016.54
2016-11-30T10:20:39.219Z,1016.53
2016-11-30T10:21:39.238Z,1016.48
2016-11-30T10:22:39.243Z,1016.42
2016-11-30T10:23:39.252Z,1016.43
2016-11-30T10:24:39.264Z,1016.41
2016-11-30T10:25:39.274Z,1016.38
2016-11-30T10:26:39.285Z,1016.38
2016-11-30T10:27:39.294Z,1016.38
2016-11-30T10:28:39.305Z,1016.4
2016-11-30T10:29:39.317Z,1016.36
2016-11-30T10:30:39.326Z,1016.35
2016-11-30T10:31:39.341Z,1016.3
2016-11-30T10:32:39.348Z,1016.31
2016-11-30T10:33:39.359Z,1016.35
2016-11-30T10:34:39.370Z,1016.34
2016-11-30T10:35:39.380Z,1016.34
2016-11-30T10:36:39.392Z,1016.35
2016-11-30T10:37:39.404Z,1016.36
2016-11-30T10:38:39.413Z,1016.32
2016-11-30T10:39:39.425Z,1016.35
2016-11-30T10:40:39.436Z,1016.33
2016-11-30T10:41:39.447Z,1016.31
2016-11-30T10:42:39.456Z,1016.29
2016-11-30T10:43:39.468Z,1016.23
2016-11-30T10:44:39.478Z,1016.23
2016-11-30T10:45:39.488Z,1016.18
2016-11-30T10:46:39.499Z,1016.18
2016-11-30T10:47:39.512Z,1016.16
2016-11-30T10:48:39.523Z,1016.11
2016-11-30T10:49:39.532Z,1016.12
2016-11-30T10:50:39.542Z,1016.12
2016-11-30T10:51:39.554Z,1016.11
2016-11-30T10:52:39.565Z,1016.03
2016-11-30T10:53:39.577Z,1016.02
2016-11-30T10:54:39.585Z,1016.03
2016-11-30T10:55:39.598Z,1016.01
2016-11-30T10:56:39.607Z,1016
2016-11-30T10:57:39.619Z,1015.98
2016-11-30T10:58:39.629Z,1015.96
2016-11-30T10:59:39.641Z,1015.98
2016-11-30T11:00:39.651Z,1015.98
2016-11-30T11:01:39.665Z,1015.94
2016-11-30T11:02:39.674Z,1015.94
2016-11-30T11:03:39.685Z,1015.93
2016-11-30T11:04:39.695Z,1015.89
2016-11-30T11:05:39.705Z,1015.85
2016-11-30T11:06:39.717Z,1015.83
2016-11-30T11:07:39.727Z,1015.8
2016-11-30T11:08:39.739Z,1015.8
2016-11-30T11:09:39.749Z,1015.78
2016-11-30T11:10:39.763Z,1015.81
2016-11-30T11:11:39.770Z,1015.81
2016-11-30T11:12:39.782Z,1015.78
2016-11-30T11:13:39.793Z,1015.78
2016-11-30T11:14:39.804Z,1015.77
2016-11-30T11:15:39.815Z,1015.76
2016-11-30T11:16:39.825Z,1015.73
2016-11-30T11:17:39.837Z,1015.8
2016-11-30T11:18:39.847Z,1015.79
2016-11-30T11:19:39.858Z,1015.8
2016-11-30T11:20:39.869Z,1015.82
2016-11-30T11:21:39.880Z,1015.83
2016-11-30T11:22:39.983Z,1015.85
2016-11-30T11:23:39.902Z,1015.79
2016-11-30T11:24:39.913Z,1015.77
2016-11-30T11:25:39.924Z,1015.8
2016-11-30T11:26:39.934Z,1015.8
2016-11-30T11:27:39.947Z,1015.85
2016-11-30T11:28:39.957Z,1015.8
2016-11-30T11:29:39.967Z,1015.82
2016-11-30T11:30:39.978Z,1015.78
2016-11-30T11:31:40.075Z,1015.78
2016-11-30T11:32:40.002Z,1015.77
2016-11-30T11:33:40.010Z,1015.68
2016-11-30T11:34:40.022Z,1015.66
2016-11-30T11:35:40.033Z,1015.64
2016-11-30T11:36:40.044Z,1015.6
2016-11-30T11:37:40.055Z,1015.6
2016-11-30T11:38:40.066Z,1015.57
2016-11-30T11:39:40.077Z,1015.63
2016-11-30T11:40:40.087Z,1015.57
2016-11-30T11:41:40.098Z,1015.59
2016-11-30T11:42:40.109Z,1015.56
2016-11-30T11:43:40.125Z,1015.56
2016-11-30T11:44:40.131Z,1015.58
2016-11-30T11:45:40.144Z,1015.58
2016-11-30T11:46:40.153Z,1015.6
2016-11-30T11:47:40.164Z,1015.62
2016-11-30T11:48:40.176Z,1015.55
2016-11-30T11:49:40.187Z,1015.53
2016-11-30T11:50:40.198Z,1015.54
2016-11-30T11:51:40.207Z,1015.52
2016-11-30T11:52:40.218Z,1015.47
2016-11-30T11:53:40.231Z,1015.49
2016-11-30T11:54:40.242Z,1015.44
2016-11-30T11:55:40.252Z,1015.42
2016-11-30T11:56:40.263Z,1015.36
2016-11-30T11:57:40.274Z,1015.31
2016-11-30T11:58:40.286Z,1015.28
2016-11-30T11:59:40.296Z,1015.26
2016-11-30T12:00:40.308Z,1015.23
2016-11-30T12:01:40.317Z,1015.24
2016-11-30T12:02:40.329Z,1015.22
2016-11-30T12:03:40.340Z,1015.24
2016-11-30T12:04:40.352Z,1015.18
2016-11-30T12:05:40.362Z,1015.17
2016-11-30T12:06:40.374Z,1015.18
2016-11-30T12:07:40.384Z,1015.13
2016-11-30T12:08:40.396Z,1015.15